Time;durP1;ratioP1;P1;durP2;ratioP2;P2;SDS_P1;SDS_P2;PMS_P1;PMS_P2;Temp;Humidity;BMP_temperature;BMP_pressure;BME280_temperature;BME280_humidity;BME280_pressure;Samples;Min_cycle;Max_cycle;Signal;HPM_P1;HPM_P2
2022/01/26 00:06:37;;;;;;;16.85;7.93;;;;;;;3.00;77.86;100330.81;4313467;33;33826;-71
2022/01/26 00:09:07;;;;;;;25.20;9.13;;;;;;;2.70;79.59;100330.59;4290450;33;33956;-71
2022/01/26 00:11:36;;;;;;;20.77;10.50;;;;;;;2.99;78.55;100326.50;4291206;33;34946;-71
2022/01/26 00:14:12;;;;;;;21.75;10.48;;;;;;;2.41;79.98;100327.81;4290283;33;35215;-71
2022/01/26 00:16:44;;;;;;;21.45;10.70;;;;;;;3.14;76.61;100332.22;4303122;33;33417;-71
2022/01/26 00:19:18;;;;;;;18.37;9.00;;;;;;;2.90;78.06;100337.34;4290940;33;33740;-71
2022/01/26 00:21:50;;;;;;;21.55;9.02;;;;;;;2.91;77.99;100341.69;4292631;33;34827;-71
2022/01/26 00:27:20;;;;;;;20.02;9.02;;;;;;;2.64;79.03;100331.25;4305330;33;33121;-70
2022/01/26 00:30:00;;;;;;;25.35;9.98;;;;;;;2.33;80.63;100326.62;4305803;33;34800;-70
2022/01/26 00:41:08;;;;;;;10.98;7.10;;;;;;;2.60;79.17;100330.25;4305731;33;34376;-71
2022/01/26 00:43:39;;;;;;;19.37;8.15;;;;;;;2.94;77.62;100338.34;4304995;33;35062;-70
2022/01/26 00:46:08;;;;;;;21.58;8.55;;;;;;;2.69;78.75;100336.56;4305701;33;35313;-72
2022/01/26 00:48:38;;;;;;;26.10;8.20;;;;;;;2.78;78.95;100337.75;4304841;33;33648;-71
2022/01/26 00:51:07;;;;;;;22.75;10.13;;;;;;;2.81;78.79;100331.87;4292805;33;34028;-70
2022/01/26 00:53:44;;;;;;;19.77;10.40;;;;;;;2.79;78.44;100329.25;4304840;33;35069;-70
2022/01/26 00:56:12;;;;;;;23.73;10.88;;;;;;;2.52;80.26;100343.62;4305653;33;34485;-71
2022/01/26 00:58:40;;;;;;;19.67;9.40;;;;;;;3.01;77.23;100340.31;4304173;33;33715;-71
2022/01/26 01:01:08;;;;;;;16.27;9.00;;;;;;;3.31;76.12;100343.06;4305705;33;33791;-71
2022/01/26 01:03:41;;;;;;;24.00;10.18;;;;;;;3.39;74.76;100338.22;4303972;33;35867;-70
2022/01/26 01:06:24;;;;;;;19.92;9.05;;;;;;;2.78;76.84;100336.91;4292230;33;34230;-72
2022/01/26 01:08:55;;;;;;;19.48;8.32;;;;;;;2.89;77.24;100339.84;4313576;33;34148;-71
2022/01/26 01:11:23;;;;;;;18.67;9.13;;;;;;;2.97;76.39;100341.03;4305657;33;34011;-70
2022/01/26 01:13:51;;;;;;;16.35;9.23;;;;;;;2.67;77.54;100331.38;4304851;33;34657;-71
2022/01/26 01:16:22;;;;;;;18.87;10.00;;;;;;;2.54;77.96;100335.19;4292628;33;34328;-71
2022/01/26 01:29:41;;;;;;;22.20;9.65;;;;;;;2.84;77.91;100344.81;4293267;33;33776;-71
2022/01/26 01:32:15;;;;;;;24.40;9.88;;;;;;;2.54;78.34;100347.12;4294268;33;33554;-71
2022/01/26 01:34:43;;;;;;;21.10;9.52;;;;;;;2.46;79.43;100345.16;4291061;33;35036;-71
2022/01/26 01:37:15;;;;;;;16.70;8.48;;;;;;;2.67;79.61;100340.78;4289804;33;35165;-70
2022/01/26 01:39:43;;;;;;;21.90;9.82;;;;;;;2.72;78.40;100332.41;4304650;33;32913;-71
2022/01/26 01:42:12;;;;;;;20.33;9.57;;;;;;;2.55;79.17;100343.75;4305395;33;33796;-72
2022/01/26 01:44:40;;;;;;;23.95;10.18;;;;;;;3.30;76.75;100348.16;4305157;33;35310;-71
2022/01/26 01:47:08;;;;;;;18.73;8.93;;;;;;;3.04;76.68;100340.41;4305292;33;34524;-71
2022/01/26 01:49:36;;;;;;;18.83;9.73;;;;;;;2.88;77.52;100353.53;4304446;33;33796;-71
2022/01/26 01:52:11;;;;;;;21.83;9.35;;;;;;;2.99;77.14;100347.09;4316124;33;33954;-71
2022/01/26 01:54:41;;;;;;;21.98;9.88;;;;;;;2.92;77.42;100337.41;4304598;33;35026;-71
2022/01/26 01:57:09;;;;;;;26.12;10.40;;;;;;;3.19;75.54;100340.97;4305318;33;34443;-71
2022/01/26 01:59:37;;;;;;;24.27;10.73;;;;;;;2.52;79.07;100338.50;4291392;33;34327;-71
2022/01/26 02:02:05;;;;;;;20.55;9.90;;;;;;;2.78;78.09;100336.91;4304174;33;34189;-71
2022/01/26 02:04:33;;;;;;;21.42;9.25;;;;;;;2.91;77.45;100340.78;4303721;33;34887;-71
2022/01/26 02:07:01;;;;;;;18.77;9.13;;;;;;;2.92;76.44;100339.97;4305180;33;35053;-71
2022/01/26 02:09:29;;;;;;;25.10;11.02;;;;;;;3.60;74.96;100336.34;4291378;33;33492;-71
2022/01/26 02:12:00;;;;;;;22.23;9.93;;;;;;;3.44;73.86;100334.06;4305227;33;33781;-71
2022/01/26 02:14:33;;;;;;;25.90;10.50;;;;;;;3.24;75.63;100333.38;4304533;33;35218;-71
2022/01/26 02:17:14;;;;;;;24.87;11.12;;;;;;;3.45;73.74;100328.09;4305271;33;34675;-71
2022/01/26 02:55:49;;;;;;;19.75;9.93;;;;;;;2.57;77.75;100316.41;4304275;33;33777;-71
2022/01/26 03:04:00;;;;;;;20.77;9.70;;;;;;;2.58;77.44;100308.75;4303272;33;34276;-71
2022/01/26 03:06:38;;;;;;;22.95;9.32;;;;;;;2.72;76.58;100309.28;4304055;33;34525;-70
2022/01/26 03:09:12;;;;;;;21.75;9.13;;;;;;;2.97;74.92;100312.72;4292130;33;34898;-70
2022/01/26 03:11:43;;;;;;;20.30;9.80;;;;;;;2.30;78.21;100316.25;4304735;33;35095;-71
2022/01/26 03:16:48;;;;;;;24.25;9.70;;;;;;;2.70;77.10;100303.19;4303797;33;34786;-71
2022/01/26 03:19:25;;;;;;;14.48;7.20;;;;;;;3.47;74.76;100300.69;4304057;33;34914;-72
2022/01/26 03:33:09;;;;;;;17.92;8.63;;;;;;;3.87;71.19;100312.31;4289603;33;34397;-71
2022/01/26 03:38:17;;;;;;;22.75;8.90;;;;;;;3.25;73.32;100308.53;4289682;33;33952;-71
2022/01/26 03:40:45;;;;;;;22.77;9.90;;;;;;;4.35;69.94;100300.91;4290356;33;35810;-72
2022/01/26 03:43:13;;;;;;;16.23;8.27;;;;;;;4.67;68.31;100306.97;4288182;33;34503;-71
2022/01/26 03:45:41;;;;;;;15.27;7.90;;;;;;;3.16;72.96;100306.50;4290195;33;33914;-71
2022/01/26 03:48:09;;;;;;;18.58;8.40;;;;;;;3.33;74.11;100307.97;4289295;33;34021;-71
2022/01/26 03:50:37;;;;;;;15.75;8.13;;;;;;;3.72;71.79;100311.81;4300796;33;35144;-71
2022/01/26 03:53:04;;;;;;;21.02;10.40;;;;;;;3.46;72.62;100305.78;4299930;33;34366;-71
2022/01/26 03:55:32;;;;;;;17.92;9.15;;;;;;;4.47;68.95;100305.56;4288310;33;33495;-71
2022/01/26 03:58:00;;;;;;;22.48;9.30;;;;;;;3.95;70.60;100305.72;4289171;33;34641;-71
2022/01/26 04:00:28;;;;;;;19.37;9.23;;;;;;;4.65;68.72;100305.19;4290276;33;36016;-71
2022/01/26 04:02:56;;;;;;;18.80;7.62;;;;;;;3.97;70.43;100305.72;4289424;33;35233;-71
2022/01/26 04:05:25;;;;;;;21.95;8.88;;;;;;;4.54;68.86;100310.06;4289681;33;33508;-71
2022/01/26 04:07:58;;;;;;;18.05;8.45;;;;;;;4.63;67.60;100305.16;4289936;33;33853;-71
2022/01/26 04:10:45;;;;;;;21.05;10.25;;;;;;;4.05;70.32;100298.25;4289463;33;35811;-72
2022/01/26 04:13:13;;;;;;;19.27;8.18;;;;;;;4.27;69.62;100303.25;4288957;33;34649;-71
2022/01/26 04:15:41;;;;;;;20.95;9.13;;;;;;;4.54;68.67;100292.88;4289549;33;33732;-71
2022/01/26 04:18:13;;;;;;;19.95;8.07;;;;;;;4.58;68.51;100298.97;4289119;33;34723;-70
2022/01/26 04:20:46;;;;;;;21.10;7.87;;;;;;;4.83;67.84;100297.97;4289532;33;35473;-71
2022/01/26 04:23:21;;;;;;;15.82;8.25;;;;;;;3.85;70.73;100293.38;4287659;33;34573;-70
2022/01/26 04:25:50;;;;;;;20.05;8.90;;;;;;;4.26;69.25;100300.63;4298808;33;33676;-70
2022/01/26 04:28:25;;;;;;;20.50;9.10;;;;;;;4.21;68.26;100297.91;4288814;33;34585;-71
2022/01/26 04:30:53;;;;;;;21.58;10.00;;;;;;;4.89;66.53;100297.28;4289425;33;35083;-71
2022/01/26 04:33:21;;;;;;;19.92;8.15;;;;;;;4.58;67.06;100291.25;4287687;33;34631;-71
2022/01/26 04:35:49;;;;;;;19.85;9.13;;;;;;;4.56;66.91;100288.63;4289375;33;33439;-71
2022/01/26 04:43:26;;;;;;;20.27;8.73;;;;;;;4.28;67.76;100288.66;4288609;33;34308;-71
2022/01/26 04:45:55;;;;;;;20.02;10.43;;;;;;;3.02;72.22;100290.59;4289370;33;33477;-71
2022/01/26 04:48:25;;;;;;;18.23;9.07;;;;;;;2.99;72.19;100291.34;4288561;33;33983;-71
2022/01/26 04:50:53;;;;;;;20.83;8.52;;;;;;;2.83;72.99;100297.66;4288176;33;34669;-71
2022/01/26 04:53:21;;;;;;;17.70;8.57;;;;;;;3.34;72.30;100295.97;4286543;33;34345;-71
2022/01/26 04:55:51;;;;;;;28.27;8.50;;;;;;;3.34;71.11;100293.41;4289353;33;33579;-71
2022/01/26 04:58:19;;;;;;;20.55;9.15;;;;;;;3.67;70.03;100292.75;4288472;33;33782;-70
2022/01/26 05:00:47;;;;;;;18.65;9.02;;;;;;;3.93;69.05;100289.31;4289159;33;35808;-72
2022/01/26 05:03:16;;;;;;;20.60;10.88;;;;;;;3.96;68.68;100281.69;4288502;33;34602;-70
2022/01/26 05:05:43;;;;;;;22.33;10.65;;;;;;;3.95;68.23;100284.19;4287951;33;33526;-71
2022/01/26 05:08:11;;;;;;;21.17;9.80;;;;;;;3.92;68.15;100287.56;4291195;33;33878;-71
2022/01/26 05:10:42;;;;;;;17.62;8.65;;;;;;;4.36;66.58;100277.75;4290139;33;34977;-71
2022/01/26 05:13:13;;;;;;;20.02;7.70;;;;;;;3.91;68.27;100283.22;4291165;33;34465;-72
2022/01/26 05:15:42;;;;;;;17.83;9.07;;;;;;;3.64;68.79;100272.94;4290355;33;33717;-72
2022/01/26 05:18:11;;;;;;;17.65;8.73;;;;;;;3.36;70.79;100271.16;4291124;33;33877;-71
2022/01/26 05:20:39;;;;;;;16.92;8.65;;;;;;;3.12;71.66;100277.22;4288578;33;35094;-71
2022/01/26 05:23:08;;;;;;;18.87;7.85;;;;;;;3.37;70.42;100280.63;4291063;33;34699;-71
2022/01/26 05:25:36;;;;;;;15.77;8.07;;;;;;;3.90;68.43;100286.66;4301191;33;34279;-71
2022/01/26 05:28:04;;;;;;;20.08;8.93;;;;;;;2.98;71.62;100276.75;4305591;33;33913;-71
2022/01/26 05:30:32;;;;;;;13.02;7.68;;;;;;;2.82;72.32;100277.91;4304712;33;34944;-71
2022/01/26 05:33:00;;;;;;;17.52;8.10;;;;;;;3.48;70.60;100278.44;4292179;33;35186;-71
2022/01/26 05:35:28;;;;;;;21.85;8.88;;;;;;;4.63;65.71;100271.63;4304581;33;33506;-71
2022/01/26 05:37:56;;;;;;;17.12;8.75;;;;;;;3.85;67.55;100277.91;4305321;33;34955;-71
2022/01/26 05:40:24;;;;;;;14.57;7.55;;;;;;;3.89;67.74;100278.88;4303606;33;35778;-72
2022/01/26 05:42:52;;;;;;;17.48;8.10;;;;;;;4.73;65.36;100272.75;4300691;33;34132;-72
2022/01/26 05:45:34;;;;;;;20.02;8.13;;;;;;;4.79;64.59;100279.78;4304797;33;34166;-73
2022/01/26 05:48:06;;;;;;;17.75;8.13;;;;;;;4.79;64.75;100282.38;4293405;33;34679;-71
2022/01/26 05:50:36;;;;;;;19.80;9.27;;;;;;;4.48;64.94;100286.66;4303499;33;34378;-72
2022/01/26 05:53:05;;;;;;;16.58;8.13;;;;;;;3.22;69.65;100287.00;4303597;33;34493;-71
2022/01/26 05:55:34;;;;;;;18.25;9.32;;;;;;;3.38;69.59;100290.09;4304895;33;33325;-72
2022/01/26 05:58:04;;;;;;;20.55;8.68;;;;;;;3.51;69.61;100288.81;4304837;33;33863;-71
2022/01/26 06:00:33;;;;;;;18.83;8.60;;;;;;;3.68;69.18;100290.22;4304366;33;36026;-70
2022/01/26 06:03:02;;;;;;;20.50;8.40;;;;;;;3.67;69.46;100297.91;4291899;33;33726;-70
2022/01/26 06:05:31;;;;;;;18.20;8.52;;;;;;;3.58;69.81;100294.22;4302758;33;34619;-70
2022/01/26 06:08:10;;;;;;;16.98;8.02;;;;;;;4.36;66.89;100288.06;4304463;33;34119;-71
2022/01/26 06:10:45;;;;;;;21.15;8.90;;;;;;;4.15;67.39;100297.72;4304743;33;35207;-71
2022/01/26 06:13:13;;;;;;;20.73;8.30;;;;;;;4.71;66.12;100295.94;4301441;33;34404;-71
2022/01/26 06:15:43;;;;;;;19.58;8.70;;;;;;;4.15;67.53;100293.44;4304186;33;33469;-71
2022/01/26 06:18:11;;;;;;;22.50;9.35;;;;;;;4.45;67.08;100292.59;4302890;33;33475;-71
2022/01/26 06:20:40;;;;;;;19.95;9.80;;;;;;;4.23;67.02;100303.97;4303892;33;35007;-72
2022/01/26 06:23:09;;;;;;;17.20;8.55;;;;;;;4.74;65.70;100300.28;4304147;33;34391;-72
2022/01/26 06:25:37;;;;;;;16.60;7.55;;;;;;;4.81;65.15;100297.06;4304028;33;33445;-72
2022/01/26 06:28:09;;;;;;;18.17;8.13;;;;;;;4.34;67.56;100301.72;4304969;33;34117;-71
2022/01/26 06:30:47;;;;;;;18.85;8.07;;;;;;;3.58;70.93;100304.53;4302855;33;35934;-71
2022/01/26 06:33:15;;;;;;;15.43;7.80;;;;;;;3.63;71.43;100302.09;4304881;33;34453;-71
2022/01/26 06:35:44;;;;;;;17.00;8.43;;;;;;;3.21;72.99;100303.28;4304366;33;33476;-71
2022/01/26 06:38:14;;;;;;;24.70;10.73;;;;;;;3.08;73.24;100306.25;4285733;33;34065;-71
2022/01/26 06:40:43;;;;;;;17.70;8.77;;;;;;;2.82;74.40;100303.66;4301494;33;35153;-70
2022/01/26 06:43:14;;;;;;;13.60;8.23;;;;;;;3.11;73.61;100301.22;4304905;33;34590;-71
2022/01/26 06:45:56;;;;;;;24.77;9.38;;;;;;;3.09;73.78;100305.44;4314349;33;32013;-70
2022/01/26 06:48:45;;;;;;;17.98;7.50;;;;;;;3.33;73.39;100307.09;4304838;33;33889;-70
2022/01/26 06:51:13;;;;;;;15.73;6.68;;;;;;;3.45;73.20;100302.34;4304629;33;38380;-73
2022/01/26 06:53:41;;;;;;;22.55;9.13;;;;;;;2.75;75.73;100301.63;4304640;33;34497;-70
2022/01/26 06:56:11;;;;;;;20.75;8.18;;;;;;;3.36;73.59;100302.06;4303764;33;34034;-70
2022/01/26 06:58:40;;;;;;;18.00;8.48;;;;;;;2.88;74.66;100307.22;4291975;33;32994;-72
2022/01/26 07:01:08;;;;;;;20.40;8.95;;;;;;;3.42;73.47;100307.41;4313912;33;35005;-72
2022/01/26 07:03:37;;;;;;;16.77;7.65;;;;;;;3.31;73.77;100306.16;4304553;33;34508;-72
2022/01/26 07:06:05;;;;;;;16.42;8.23;;;;;;;3.13;74.46;100303.84;4303262;33;33938;-72
2022/01/26 07:08:33;;;;;;;15.90;8.05;;;;;;;3.09;74.86;100305.44;4304712;33;34700;-71
2022/01/26 07:11:01;;;;;;;17.80;8.82;;;;;;;2.46;76.60;100298.00;4303028;33;35116;-70
2022/01/26 07:13:29;;;;;;;17.05;8.55;;;;;;;2.67;76.38;100303.06;4304742;33;35370;-70
2022/01/26 07:21:33;;;;;;;15.50;6.95;;;;;;;3.22;73.74;100305.03;4310200;33;35994;-71
2022/01/26 07:24:01;;;;;;;17.77;8.38;;;;;;;3.87;72.11;100302.00;4296045;33;34387;-70
2022/01/26 07:26:31;;;;;;;17.20;6.28;;;;;;;3.57;72.69;100301.91;4298982;33;33018;-70
2022/01/26 07:29:11;;;;;;;23.62;10.85;;;;;;;3.58;72.39;100294.22;4309608;33;34648;-69
2022/01/26 07:31:43;;;;;;;21.05;10.90;;;;;;;3.30;73.34;100295.00;4310628;33;35018;-70
2022/01/26 07:34:13;;;;;;;17.35;8.30;;;;;;;2.94;74.91;100298.03;4315433;33;33704;-70
2022/01/26 07:36:43;;;;;;;16.37;8.80;;;;;;;3.18;74.45;100290.31;4304588;33;33610;-69
2022/01/26 07:39:16;;;;;;;16.33;7.37;;;;;;;2.72;75.71;100285.22;4302472;33;34867;-70
2022/01/26 07:41:49;;;;;;;16.00;9.00;;;;;;;2.97;75.26;100287.00;4304627;33;34969;-69
2022/01/26 07:44:21;;;;;;;14.48;8.60;;;;;;;2.97;75.22;100290.44;4302894;33;34436;-70
2022/01/26 07:46:49;;;;;;;14.98;8.15;;;;;;;2.96;74.64;100291.25;4304521;33;34391;-69
2022/01/26 07:49:18;;;;;;;18.23;7.90;;;;;;;2.81;75.15;100291.59;4305659;33;34089;-72
2022/01/26 07:51:49;;;;;;;18.02;9.25;;;;;;;2.56;76.59;100289.84;4310266;33;35767;-69
2022/01/26 07:54:18;;;;;;;19.05;9.43;;;;;;;2.95;74.83;100296.38;4309138;33;35839;-69
2022/01/26 07:56:47;;;;;;;23.48;12.90;;;;;;;3.22;74.14;100292.16;4309488;33;34133;-69
2022/01/26 07:59:15;;;;;;;16.42;7.78;;;;;;;2.85;74.82;100290.88;4309191;33;33832;-69
2022/01/26 08:01:43;;;;;;;17.58;9.57;;;;;;;3.31;73.75;100289.00;4309539;33;35135;-72
2022/01/26 08:04:12;;;;;;;14.93;8.32;;;;;;;3.22;73.42;100299.00;4307947;33;34515;-71
2022/01/26 08:06:41;;;;;;;11.00;6.57;;;;;;;3.53;72.58;100295.78;4305665;33;33484;-71
2022/01/26 08:09:09;;;;;;;14.90;7.68;;;;;;;3.33;73.18;100296.78;4314399;33;34832;-70
2022/01/26 08:11:37;;;;;;;14.85;8.40;;;;;;;3.54;72.27;100292.34;4302425;33;35153;-69
2022/01/26 08:14:05;;;;;;;15.52;7.12;;;;;;;3.64;72.58;100297.84;4304277;33;34650;-68
2022/01/26 08:16:33;;;;;;;15.35;7.72;;;;;;;3.75;71.61;100292.19;4302774;33;33550;-71
2022/01/26 08:19:01;;;;;;;14.82;7.93;;;;;;;3.65;71.41;100294.41;4303304;33;34629;-69
2022/01/26 08:21:29;;;;;;;15.43;7.37;;;;;;;3.45;72.76;100297.22;4302548;33;35899;-69
2022/01/26 08:24:03;;;;;;;15.65;6.22;;;;;;;3.66;71.85;100291.03;4303986;33;34529;-69
2022/01/26 08:26:39;;;;;;;14.48;6.80;;;;;;;3.03;73.45;100295.78;4303405;33;33453;-68
2022/01/26 08:29:14;;;;;;;17.83;6.57;;;;;;;3.49;72.43;100288.75;4304206;33;34721;-70
2022/01/26 08:31:43;;;;;;;7.90;4.82;;;;;;;3.41;72.54;100285.06;4303783;33;35074;-69
2022/01/26 08:34:11;;;;;;;15.43;6.85;;;;;;;3.62;71.90;100284.91;4303104;33;35223;-71
2022/01/26 08:36:39;;;;;;;18.08;6.32;;;;;;;2.98;74.03;100301.59;4301778;33;33722;-70
2022/01/26 08:39:07;;;;;;;13.32;6.35;;;;;;;3.14;73.43;100298.75;4311935;33;33982;-70
2022/01/26 08:41:36;;;;;;;15.07;7.00;;;;;;;3.30;72.43;100300.16;4304587;33;35883;-69
2022/01/26 08:44:04;;;;;;;13.65;5.60;;;;;;;3.32;73.04;100300.19;4305744;33;35384;-71
2022/01/26 08:46:32;;;;;;;13.57;6.07;;;;;;;3.80;71.07;100302.66;4305048;33;33389;-70
2022/01/26 08:49:01;;;;;;;14.95;7.40;;;;;;;3.83;71.09;100305.31;4292656;33;33802;-70
2022/01/26 08:51:29;;;;;;;19.00;7.70;;;;;;;3.35;73.23;100303.75;4291839;33;35252;-70
2022/01/26 08:53:58;;;;;;;12.23;6.65;;;;;;;3.53;72.12;100308.66;4303205;33;34434;-69
2022/01/26 08:56:26;;;;;;;15.68;6.40;;;;;;;3.88;70.44;100308.03;4302988;33;32778;-70
2022/01/26 08:58:54;;;;;;;12.60;6.87;;;;;;;4.42;68.70;100312.28;4304547;33;34826;-69
2022/01/26 09:01:22;;;;;;;11.35;5.57;;;;;;;3.88;69.98;100319.22;4304586;33;35101;-70
2022/01/26 09:03:50;;;;;;;19.55;8.73;;;;;;;3.76;71.03;100324.00;4305633;33;35206;-70
2022/01/26 09:06:19;;;;;;;17.33;7.07;;;;;;;3.82;71.13;100329.31;4304761;33;33452;-70
2022/01/26 09:08:53;;;;;;;17.73;7.47;;;;;;;3.93;70.90;100327.09;4304864;33;34105;-70
2022/01/26 09:11:22;;;;;;;18.42;6.97;;;;;;;3.78;71.06;100328.34;4304807;33;35023;-70
2022/01/26 09:13:58;;;;;;;12.18;6.80;;;;;;;4.13;69.88;100326.03;4305634;33;34564;-70
2022/01/26 09:16:26;;;;;;;17.73;8.00;;;;;;;4.05;70.06;100327.47;4304763;33;32644;-70
2022/01/26 09:18:58;;;;;;;17.20;8.50;;;;;;;4.94;67.13;100329.22;4305610;33;33895;-69
2022/01/26 09:21:26;;;;;;;12.57;6.78;;;;;;;4.12;69.35;100324.25;4304468;33;34922;-71
2022/01/26 09:23:54;;;;;;;16.08;7.12;;;;;;;4.47;68.60;100324.47;4305196;33;34554;-68
2022/01/26 09:26:22;;;;;;;11.77;5.30;;;;;;;4.06;69.42;100323.19;4304838;33;33767;-68
2022/01/26 09:28:50;;;;;;;16.05;7.10;;;;;;;4.20;69.05;100319.38;4305614;33;33936;-69
2022/01/26 09:31:18;;;;;;;23.62;6.25;;;;;;;4.63;67.62;100318.06;4304080;33;35153;-68
2022/01/26 09:33:46;;;;;;;13.70;6.57;;;;;;;4.45;67.62;100317.53;4305605;33;34356;-68
2022/01/26 09:36:14;;;;;;;16.77;5.97;;;;;;;3.89;69.96;100320.97;4304664;33;33546;-69
2022/01/26 09:38:42;;;;;;;13.65;6.28;;;;;;;4.35;67.99;100312.06;4305466;33;34876;-68
2022/01/26 09:41:09;;;;;;;12.27;6.20;;;;;;;4.28;69.01;100304.13;4304524;33;35007;-68
2022/01/26 09:43:38;;;;;;;12.60;5.97;;;;;;;4.39;67.53;100301.84;4304205;33;35196;-67
2022/01/26 09:46:06;;;;;;;12.37;5.80;;;;;;;3.97;69.93;100306.62;4291549;33;33483;-74
2022/01/26 09:48:35;;;;;;;11.43;6.15;;;;;;;4.33;68.46;100300.84;4303030;33;34827;-68
2022/01/26 09:51:03;;;;;;;16.60;6.53;;;;;;;4.28;68.59;100309.28;4304175;33;35304;-68
2022/01/26 09:53:33;;;;;;;15.23;6.55;;;;;;;4.18;68.71;100298.69;4306641;33;34531;-70
2022/01/26 09:56:00;;;;;;;12.68;5.62;;;;;;;4.84;66.75;100296.28;4309845;33;33380;-68
2022/01/26 09:58:29;;;;;;;15.50;6.80;;;;;;;4.78;67.10;100290.94;4310357;33;33896;-71
2022/01/26 10:00:59;;;;;;;14.95;6.35;;;;;;;5.06;65.89;100300.31;4306957;33;35128;-68
2022/01/26 10:03:31;;;;;;;12.13;5.97;;;;;;;5.03;66.16;100295.94;4308961;33;35219;-68
2022/01/26 10:06:00;;;;;;;16.42;6.60;;;;;;;5.11;65.24;100302.19;4304610;33;33997;-68
2022/01/26 10:19:09;;;;;;;14.05;7.12;;;;;;;5.19;65.31;100288.59;4308861;33;34400;-69
2022/01/26 10:21:48;;;;;;;12.82;5.57;;;;;;;5.09;66.17;100278.03;4310245;33;34834;-68
2022/01/26 10:24:26;;;;;;;16.65;5.85;;;;;;;5.19;65.78;100284.31;4310862;33;35218;-67
2022/01/26 10:26:58;;;;;;;15.85;7.18;;;;;;;4.57;67.63;100286.94;4307073;33;33410;-67
2022/01/26 10:29:29;;;;;;;9.90;5.78;;;;;;;4.64;67.62;100287.97;4297764;33;33744;-67
2022/01/26 10:31:58;;;;;;;8.95;5.70;;;;;;;4.94;66.34;100280.19;4309877;33;35030;-67
2022/01/26 10:34:26;;;;;;;10.85;6.47;;;;;;;4.74;67.17;100284.81;4307608;33;34567;-67
2022/01/26 10:37:00;;;;;;;10.93;5.78;;;;;;;4.74;67.22;100292.56;4309193;33;33651;-68
2022/01/26 10:39:37;;;;;;;14.10;6.22;;;;;;;4.87;66.43;100283.44;4297753;33;34641;-67
2022/01/26 10:42:09;;;;;;;12.02;6.25;;;;;;;4.92;66.41;100284.44;4310650;33;34822;-67
2022/01/26 10:44:48;;;;;;;14.87;6.10;;;;;;;5.26;65.00;100280.19;4309679;33;34478;-67
2022/01/26 10:47:26;;;;;;;12.48;6.22;;;;;;;4.78;66.61;100278.03;4299126;33;34237;-67
2022/01/26 10:52:36;;;;;;;12.18;6.00;;;;;;;5.61;64.28;100277.59;4305010;33;35131;-67
2022/01/26 10:55:06;;;;;;;19.20;5.80;;;;;;;5.27;65.01;100275.03;4304209;33;33662;-67
2022/01/26 10:57:35;;;;;;;10.38;4.90;;;;;;;5.18;65.71;100276.53;4308682;33;32824;-69
2022/01/26 11:00:05;;;;;;;14.80;5.45;;;;;;;5.07;65.84;100269.38;4309027;33;33928;-69
2022/01/26 11:02:34;;;;;;;10.95;5.07;;;;;;;5.16;65.43;100268.75;4293196;33;35077;-69
2022/01/26 11:05:03;;;;;;;15.95;6.78;;;;;;;5.26;65.62;100269.88;4296733;33;34365;-72
2022/01/26 11:07:36;;;;;;;14.68;6.43;;;;;;;5.03;65.76;100264.09;4308948;33;34551;-70
2022/01/26 11:10:06;;;;;;;14.40;6.53;;;;;;;5.52;64.32;100267.91;4309623;33;34778;-70
2022/01/26 11:12:38;;;;;;;14.63;6.25;;;;;;;4.66;66.32;100265.66;4294648;33;36507;-68
2022/01/26 11:15:09;;;;;;;11.50;5.57;;;;;;;4.95;65.47;100258.72;4288788;33;34426;-68
2022/01/26 11:17:42;;;;;;;14.82;6.57;;;;;;;5.37;64.36;100265.84;4279104;33;32970;-68
2022/01/26 11:20:21;;;;;;;15.85;5.53;;;;;;;5.28;64.05;100260.44;4304886;33;34833;-68
2022/01/26 11:22:54;;;;;;;10.85;4.93;;;;;;;4.60;66.84;100265.50;4303732;33;35900;-68
2022/01/26 11:25:24;;;;;;;18.20;5.40;;;;;;;5.25;64.55;100258.66;4290211;33;34487;-67
2022/01/26 11:27:52;;;;;;;11.23;5.57;;;;;;;4.68;66.11;100259.72;4290202;33;33469;-68
2022/01/26 11:30:24;;;;;;;15.48;6.60;;;;;;;4.67;66.23;100262.25;4291331;33;32036;-67
2022/01/26 11:32:56;;;;;;;18.90;6.53;;;;;;;4.59;65.80;100272.38;4304831;33;35020;-69
2022/01/26 11:35:31;;;;;;;11.73;4.70;;;;;;;4.43;67.05;100263.31;4304437;33;34369;-69
2022/01/26 11:47:10;;;;;;;22.67;8.00;;;;;;;5.09;66.51;100259.97;4304527;33;34594;-69
2022/01/26 11:49:41;;;;;;;11.93;6.78;;;;;;;5.11;65.68;100253.13;4301975;33;32694;-69
2022/01/26 11:52:21;;;;;;;15.80;7.05;;;;;;;4.53;66.66;100251.53;4303727;33;33257;-69
2022/01/26 11:54:56;;;;;;;23.10;8.55;;;;;;;4.87;65.72;100255.06;4303751;33;35183;-68
2022/01/26 11:57:43;;;;;;;9.30;5.50;;;;;;;4.52;66.76;100257.56;4304528;33;35155;-70
2022/01/26 12:00:17;;;;;;;13.70;7.03;;;;;;;4.81;65.96;100266.09;4313488;33;33762;-68
2022/01/26 12:05:21;;;;;;;25.05;14.68;;;;;;;5.26;65.57;100249.22;4311010;33;35700;-68
2022/01/26 12:07:54;;;;;;;24.90;15.85;;;;;;;5.64;64.00;100241.50;4301644;33;33595;-69
2022/01/26 12:10:31;;;;;;;16.67;9.57;;;;;;;5.66;63.81;100240.69;4303564;33;34403;-68
2022/01/26 12:13:16;;;;;;;14.05;8.65;;;;;;;4.79;66.58;100235.94;4307252;33;33945;-69
2022/01/26 12:18:54;;;;;;;12.63;6.85;;;;;;;5.55;63.70;100241.31;4301902;33;34429;-69
2022/01/26 12:38:25;;;;;;;21.20;12.68;;;;;;;5.13;64.34;100217.03;4304238;33;35096;-69
2022/01/26 12:41:17;;;;;;;11.95;7.03;;;;;;;5.25;64.61;100216.47;4304025;33;34703;-69
2022/01/26 12:43:50;;;;;;;17.48;6.47;;;;;;;6.04;61.89;100209.72;4303242;33;33225;-70
2022/01/26 12:46:29;;;;;;;13.98;6.30;;;;;;;5.92;63.06;100199.09;4303992;33;33926;-70
2022/01/26 12:48:59;;;;;;;15.10;6.32;;;;;;;5.95;61.42;100206.03;4304054;33;35018;-72
2022/01/26 12:51:28;;;;;;;11.52;6.85;;;;;;;6.32;61.00;100207.72;4304938;33;35320;-69
2022/01/26 12:53:58;;;;;;;19.12;8.25;;;;;;;5.30;63.34;100209.72;4293445;33;33506;-68
2022/01/26 12:56:28;;;;;;;11.65;5.03;;;;;;;5.13;64.30;100207.59;4290422;33;34528;-70
2022/01/26 12:59:13;;;;;;;16.95;6.50;;;;;;;5.00;65.16;100210.69;4302635;33;35123;-69
2022/01/26 13:01:41;;;;;;;16.55;6.57;;;;;;;5.47;63.97;100203.25;4312664;33;34420;-70
2022/01/26 13:04:13;;;;;;;13.93;6.90;;;;;;;5.39;64.22;100207.34;4310084;33;33432;-68
2022/01/26 13:06:46;;;;;;;15.43;6.72;;;;;;;5.35;64.01;100200.38;4303423;33;34878;-69
2022/01/26 13:09:25;;;;;;;17.27;5.78;;;;;;;5.26;64.00;100207.91;4301963;33;34945;-69
2022/01/26 13:11:59;;;;;;;12.50;6.45;;;;;;;5.08;64.03;100209.19;4302691;33;35092;-70
2022/01/26 13:14:31;;;;;;;12.90;6.80;;;;;;;4.64;65.85;100210.56;4304038;33;33605;-71
2022/01/26 13:39:14;;;;;;;14.82;6.45;;;;;;;5.58;63.38;100205.22;4305247;33;33959;-69
2022/01/26 14:00:05;;;;;;;10.85;5.18;;;;;;;5.08;64.65;100209.19;4304274;33;34736;-68
2022/01/26 14:02:36;;;;;;;11.65;4.75;;;;;;;5.43;63.35;100211.75;4292593;33;35052;-68
2022/01/26 14:05:06;;;;;;;12.18;5.50;;;;;;;5.38;62.92;100205.59;4293589;33;35104;-68
2022/01/26 14:07:34;;;;;;;16.37;5.93;;;;;;;5.44;63.03;100203.16;4311953;33;33381;-67
2022/01/26 14:10:03;;;;;;;9.90;5.05;;;;;;;5.36;62.32;100199.50;4309079;33;34690;-68
2022/01/26 14:12:36;;;;;;;9.00;5.25;;;;;;;4.58;65.40;100210.41;4305264;33;34955;-69
2022/01/26 14:15:07;;;;;;;11.77;5.97;;;;;;;4.92;64.60;100205.34;4304416;33;35194;-68
2022/01/26 14:17:56;;;;;;;12.65;5.65;;;;;;;5.09;63.59;100210.91;4305245;33;33155;-68
2022/01/26 14:20:48;;;;;;;12.00;5.18;;;;;;;4.96;64.31;100211.44;4304500;33;33839;-68
2022/01/26 14:25:49;;;;;;;16.70;5.57;;;;;;;5.11;63.94;100209.25;4304059;33;35305;-68
2022/01/26 14:28:22;;;;;;;12.02;5.32;;;;;;;5.27;63.70;100204.47;4305205;33;33549;-69
2022/01/26 14:33:56;;;;;;;11.35;5.53;;;;;;;4.74;65.65;100203.13;4305059;33;34946;-68
2022/01/26 14:36:47;;;;;;;12.00;6.35;;;;;;;5.12;63.97;100212.72;4304197;33;33675;-69
2022/01/26 15:49:04;;;;;;;10.20;5.03;;;;;;;3.60;69.35;100210.16;4291536;33;33867;-68
2022/01/26 15:51:04;;;;;;;17.95;7.18;;;;;;;3.76;68.54;100201.22;4291498;33;34920;-68
2022/01/26 16:04:43;;;;;;;;;;;;;;;3.37;70.44;100221.41;4304112;33;34389;-69
2022/01/26 16:07:21;;;;;;;16.67;8.07;;;;;;;3.64;69.40;100220.56;4304597;33;33483;-68
2022/01/26 16:12:57;;;;;;;19.37;8.47;;;;;;;2.99;72.01;100233.87;4304467;33;34611;-69